Time;durP1;ratioP1;P1;durP2;ratioP2;P2;SDS_P1;SDS_P2;PMS_P1;PMS_P2;Temp;Humidity;BMP_temperature;BMP_pressure;BME280_temperature;BME280_humidity;BME280_pressure;Samples;Min_cycle;Max_cycle;Signal;HPM_P1;HPM_P2
2024/02/10 00:02:01;;;;;;;10.30;3.17;;;11.70;15.10;;;;;;20764162;28;20071;-40
2024/02/10 00:12:01;;;;;;;6.68;3.40;;;11.80;14.70;;;;;;20766491;28;20057;-40
2024/02/10 00:22:06;;;;;;;10.77;3.53;;;11.60;16.80;;;;;;20766033;28;20460;-41
2024/02/10 00:32:09;;;;;;;7.47;3.47;;;11.50;20.50;;;;;;20766598;28;20404;-40
2024/02/10 00:42:11;;;;;;;9.43;3.40;;;11.50;21.40;;;;;;20780828;28;20352;-41
2024/02/10 00:52:17;;;;;;;7.93;3.63;;;11.50;22.90;;;;;;20781525;28;20087;-40
2024/02/10 01:02:20;;;;;;;8.32;3.45;;;11.50;24.20;;;;;;20783596;28;20033;-40
2024/02/10 01:12:21;;;;;;;11.93;3.83;;;11.30;28.30;;;;;;20779127;28;20107;-41
2024/02/10 01:22:22;;;;;;;10.40;3.85;;;11.30;28.60;;;;;;20773951;28;21748;-41
2024/02/10 01:32:24;;;;;;;8.65;3.75;;;11.30;38.00;;;;;;20774528;28;20034;-40
2024/02/10 01:42:38;;;;;;;8.93;3.88;;;11.30;42.60;;;;;;20776770;28;20959;-40
2024/02/10 01:52:39;;;;;;;9.38;4.07;;;11.30;51.70;;;;;;20768590;28;20041;-41
2024/02/10 02:02:41;;;;;;;8.15;4.05;;;11.10;64.80;;;;;;20768740;28;20464;-40
2024/02/10 02:12:48;;;;;;;9.18;4.95;;;11.10;64.00;;;;;;20770991;28;20056;-40
2024/02/10 02:22:50;;;;;;;9.48;4.22;;;11.10;74.60;;;;;;20768087;28;20040;-40
2024/02/10 02:32:51;;;;;;;8.82;3.90;;;11.10;83.20;;;;;;20769760;28;20556;-41
2024/02/10 02:42:52;;;;;;;7.72;4.30;;;11.10;81.80;;;;;;20769105;28;20042;-41
2024/02/10 02:52:55;;;;;;;8.95;4.32;;;11.10;87.80;;;;;;20765974;28;20782;-40
2024/02/10 03:02:59;;;;;;;11.00;4.25;;;11.00;91.70;;;;;;20764517;28;20089;-41
2024/02/10 03:13:00;;;;;;;7.30;3.97;;;11.00;91.60;;;;;;20766535;28;20588;-40
2024/02/10 03:23:03;;;;;;;9.93;4.00;;;10.90;99.90;;;;;;20767632;28;20488;-41
2024/02/10 03:33:04;;;;;;;9.73;3.83;;;10.90;99.90;;;;;;20765187;28;20049;-41
2024/02/10 03:43:04;;;;;;;7.73;3.60;;;10.90;96.40;;;;;;20763481;28;20048;-41
2024/02/10 03:53:05;;;;;;;7.80;3.93;;;10.80;99.90;;;;;;20760966;28;20967;-41
2024/02/10 04:03:09;;;;;;;12.25;4.78;;;10.50;99.90;;;;;;20765879;28;20444;-41
2024/02/10 04:13:10;;;;;;;8.38;4.57;;;10.50;99.90;;;;;;20765042;28;20065;-40
2024/02/10 04:23:11;;;;;;;6.50;4.43;;;10.60;99.90;;;;;;20777241;28;20575;-41
2024/02/10 04:33:13;;;;;;;9.52;4.20;;;10.70;99.90;;;;;;20779656;28;20049;-40
2024/02/10 04:43:17;;;;;;;6.22;4.00;;;10.90;99.90;;;;;;20784085;28;20028;-40
2024/02/10 04:53:17;;;;;;;9.10;4.80;;;10.80;99.90;;;;;;20775071;28;20043;-41
2024/02/10 05:03:18;;;;;;;9.70;3.53;;;10.80;99.90;;;;;;20764859;28;20045;-40
2024/02/10 05:13:21;;;;;;;6.97;3.25;;;10.90;99.90;;;;;;20788188;28;20041;-41
2024/02/10 05:23:21;;;;;;;6.35;3.58;;;10.80;99.90;;;;;;20762571;28;20049;-40
2024/02/10 05:33:23;;;;;;;6.43;3.38;;;10.80;96.50;;;;;;20778985;28;20050;-41
2024/02/10 05:43:24;;;;;;;7.78;3.22;;;10.80;95.50;;;;;;20776423;28;20041;-40
2024/02/10 05:53:24;;;;;;;7.32;3.03;;;10.80;94.10;;;;;;20779937;28;20071;-40
2024/02/10 06:03:29;;;;;;;6.20;3.53;;;10.80;96.40;;;;;;20760753;28;20508;-40
2024/02/10 06:13:32;;;;;;;6.13;3.38;;;10.70;99.80;;;;;;20783723;28;20811;-40
2024/02/10 06:23:33;;;;;;;6.82;3.40;;;10.70;98.70;;;;;;20779561;28;20037;-41
2024/02/10 06:33:35;;;;;;;7.85;3.28;;;10.70;96.00;;;;;;20775998;28;20051;-40
2024/02/10 06:43:36;;;;;;;6.43;3.05;;;10.70;90.80;;;;;;20778296;28;20156;-40
2024/02/10 06:53:36;;;;;;;8.98;3.80;;;10.70;90.80;;;;;;20756561;28;20041;-41
2024/02/10 07:03:37;;;;;;;6.23;2.83;;;10.80;86.30;;;;;;20774271;28;20057;-40
2024/02/10 07:13:38;;;;;;;6.47;2.87;;;10.90;79.10;;;;;;20771751;28;20040;-41
2024/02/10 07:23:40;;;;;;;6.90;2.80;;;10.70;87.00;;;;;;20773816;28;20520;-41
2024/02/10 07:33:40;;;;;;;6.93;2.80;;;10.70;88.50;;;;;;20752935;28;20087;-40
2024/02/10 07:43:41;;;;;;;5.93;2.88;;;10.70;80.20;;;;;;20767140;28;20037;-41
2024/02/10 07:53:44;;;;;;;5.45;2.80;;;10.70;87.20;;;;;;20750914;28;20092;-41
2024/02/10 08:03:45;;;;;;;8.40;4.30;;;10.70;81.00;;;;;;20689360;28;20087;-40
2024/02/10 08:13:45;;;;;;;5.88;3.30;;;10.70;79.80;;;;;;20731704;28;20041;-41
2024/02/10 08:23:49;;;;;;;5.07;2.92;;;10.70;96.70;;;;;;20736529;28;20273;-41
2024/02/10 08:33:50;;;;;;;9.45;3.83;;;10.70;97.70;;;;;;20729062;28;20225;-40
2024/02/10 08:43:51;;;;;;;7.88;3.90;;;11.00;89.30;;;;;;20745823;28;20037;-41
2024/02/10 08:53:56;;;;;;;5.18;3.28;;;11.10;76.60;;;;;;20749122;28;20111;-40
2024/02/10 09:03:58;;;;;;;8.35;4.10;;;11.20;57.30;;;;;;20693499;28;20053;-41
2024/02/10 09:13:58;;;;;;;7.53;4.10;;;11.10;68.50;;;;;;20641169;28;20046;-41
2024/02/10 09:23:59;;;;;;;6.97;4.18;;;11.30;58.40;;;;;;20657766;28;20068;-41
2024/02/10 09:34:01;;;;;;;6.85;4.03;;;11.40;64.50;;;;;;20605253;28;20148;-41
2024/02/10 09:44:07;;;;;;;5.72;3.67;;;11.50;55.10;;;;;;20594785;28;20041;-41
2024/02/10 09:54:08;;;;;;;6.53;3.67;;;11.60;52.00;;;;;;20600085;28;20069;-41
2024/02/10 10:04:11;;;;;;;8.25;4.00;;;11.70;41.60;;;;;;20605460;28;20081;-40
2024/02/10 10:14:20;;;;;;;5.95;3.67;;;11.80;41.70;;;;;;20553198;28;20072;-41
2024/02/10 10:24:22;;;;;;;7.07;3.80;;;11.70;45.60;;;;;;20577414;28;20493;-41
2024/02/10 10:34:23;;;;;;;7.10;4.22;;;11.90;42.00;;;;;;20657763;28;20046;-41
2024/02/10 10:44:26;;;;;;;7.57;4.10;;;11.90;36.10;;;;;;20688342;28;20100;-40
2024/02/10 10:54:33;;;;;;;6.28;3.67;;;12.00;33.00;;;;;;20679095;28;20041;-41
2024/02/10 11:04:35;;;;;;;9.93;4.05;;;12.00;44.80;;;;;;20687801;28;20148;-41
2024/02/10 11:14:36;;;;;;;5.38;3.33;;;12.20;31.10;;;;;;20693476;28;20095;-41
2024/02/10 11:24:44;;;;;;;8.75;4.03;;;12.20;32.30;;;;;;20691872;28;20045;-41
2024/02/10 11:34:46;;;;;;;7.13;3.63;;;12.20;35.30;;;;;;20698648;28;20085;-41
2024/02/10 11:44:47;;;;;;;10.13;3.85;;;12.40;30.80;;;;;;20690710;28;20410;-41
2024/02/10 11:54:48;;;;;;;9.93;3.90;;;12.60;20.60;;;;;;20701271;28;20046;-41
2024/02/10 12:04:50;;;;;;;8.27;4.35;;;12.40;24.50;;;;;;20705499;28;20042;-41
2024/02/10 12:14:51;;;;;;;6.90;3.75;;;12.60;21.00;;;;;;20700700;28;20038;-41
2024/02/10 12:24:52;;;;;;;8.65;5.32;;;12.70;15.50;;;;;;20692230;28;20061;-41
2024/02/10 12:34:53;;;;;;;7.60;5.20;;;12.70;18.90;;;;;;20699728;28;20053;-41
2024/02/10 12:44:54;;;;;;;10.25;7.68;;;12.70;19.60;;;;;;20707579;28;20038;-41
2024/02/10 12:54:55;;;;;;;8.75;6.43;;;12.70;20.60;;;;;;20706990;28;20048;-41
2024/02/10 13:04:55;;;;;;;11.77;8.10;;;12.60;25.10;;;;;;20707822;28;20344;-41
2024/02/10 13:14:56;;;;;;;10.00;7.70;;;12.70;25.30;;;;;;20689918;28;20034;-41
2024/02/10 13:24:56;;;;;;;7.90;6.05;;;12.80;23.70;;;;;;20600120;28;20512;-41
2024/02/10 13:34:59;;;;;;;9.27;6.45;;;12.80;23.60;;;;;;20632940;28;20053;-41
2024/02/10 14:06:08;;;;;;;7.78;4.78;;;13.00;15.20;;;;;;20676321;28;20069;-41
2024/02/10 14:15:59;;;;;;;9.82;5.55;;;13.00;12.60;;;;;;20650813;28;20050;-41
2024/02/10 14:26:12;;;;;;;6.75;4.72;;;13.00;11.00;;;;;;20644512;28;20426;-41
2024/02/10 14:36:17;;;;;;;9.73;6.65;;;12.90;12.10;;;;;;20644442;28;20116;-41
2024/02/10 14:46:17;;;;;;;10.50;6.55;;;12.90;13.80;;;;;;20623277;28;20038;-40
2024/02/10 14:56:23;;;;;;;7.72;5.80;;;12.90;14.80;;;;;;20623930;28;20049;-41
2024/02/10 15:06:24;;;;;;;7.60;5.45;;;12.80;12.60;;;;;;20629723;28;20105;-40
2024/02/10 15:16:25;;;;;;;9.55;6.53;;;12.70;13.60;;;;;;20642378;28;20038;-40
2024/02/10 15:26:25;;;;;;;9.10;5.60;;;12.60;19.80;;;;;;20634170;28;20107;-40
2024/02/10 15:36:26;;;;;;;8.88;5.22;;;12.60;14.20;;;;;;20633083;28;20669;-40
2024/02/10 15:46:27;;;;;;;7.60;4.50;;;12.50;18.00;;;;;;20646856;28;20042;-41
2024/02/10 15:56:27;;;;;;;7.82;5.20;;;12.30;24.00;;;;;;20673227;28;20053;-41
2024/02/10 16:06:29;;;;;;;7.57;4.90;;;12.30;29.30;;;;;;20675862;28;20038;-40
2024/02/10 16:16:30;;;;;;;6.72;5.18;;;12.30;29.90;;;;;;20675142;28;20425;-41
2024/02/10 16:26:31;;;;;;;8.50;5.03;;;12.10;36.70;;;;;;20659487;28;20060;-41
2024/02/10 16:36:34;;;;;;;9.15;6.22;;;12.00;44.90;;;;;;20662639;28;20049;-41
2024/02/10 16:46:35;;;;;;;7.90;5.10;;;11.90;53.60;;;;;;20673963;28;20053;-40
2024/02/10 16:56:38;;;;;;;10.65;5.95;;;11.70;60.30;;;;;;20672239;28;20502;-41
2024/02/10 17:06:40;;;;;;;11.85;7.55;;;11.60;71.20;;;;;;20687269;28;20458;-41
2024/02/10 17:16:41;;;;;;;10.23;7.32;;;11.40;78.00;;;;;;20692433;28;20034;-41
2024/02/10 17:26:41;;;;;;;10.23;7.35;;;11.20;90.00;;;;;;20677941;28;20165;-41
2024/02/10 17:36:42;;;;;;;9.48;7.20;;;11.10;95.60;;;;;;20672551;28;20462;-41
2024/02/10 17:46:47;;;;;;;11.43;7.80;;;11.00;99.90;;;;;;20672869;28;20058;-41
2024/02/10 17:56:48;;;;;;;16.08;9.88;;;10.90;99.90;;;;;;20688061;28;20052;-41
2024/02/10 18:06:49;;;;;;;18.05;9.40;;;11.00;99.90;;;;;;20684314;28;20038;-41
2024/02/10 18:16:51;;;;;;;14.45;8.95;;;11.10;99.90;;;;;;20679846;28;20034;-41
2024/02/10 18:26:52;;;;;;;15.85;9.77;;;11.10;99.90;;;;;;20664147;28;20061;-41
2024/02/10 18:36:54;;;;;;;14.20;9.60;;;11.10;99.90;;;;;;20671707;28;20445;-41
2024/02/10 18:46:55;;;;;;;16.20;10.02;;;11.20;99.90;;;;;;20642233;28;20037;-41
2024/02/10 18:56:56;;;;;;;20.13;12.15;;;11.20;99.90;;;;;;20658778;28;20789;-41
2024/02/10 19:06:56;;;;;;;14.35;10.07;;;11.20;99.90;;;;;;20643487;28;20270;-42
2024/02/10 19:16:59;;;;;;;15.18;10.98;;;11.20;99.90;;;;;;20652738;28;20494;-41
2024/02/10 19:27:01;;;;;;;15.45;10.32;;;11.20;99.90;;;;;;20646450;28;20042;-41
2024/02/10 19:37:01;;;;;;;16.05;11.30;;;11.10;99.90;;;;;;20664248;28;20080;-41
2024/02/10 19:47:02;;;;;;;15.00;10.25;;;11.10;99.90;;;;;;20686280;28;20037;-41
2024/02/10 19:57:03;;;;;;;18.95;13.50;;;11.00;99.90;;;;;;20677841;28;20053;-41
2024/02/10 20:07:06;;;;;;;20.30;12.50;;;10.90;99.90;;;;;;20663095;28;20045;-41
2024/02/10 20:17:10;;;;;;;17.83;13.02;;;10.90;99.90;;;;;;20667204;28;21043;-41
2024/02/10 20:27:11;;;;;;;16.83;11.60;;;10.90;99.90;;;;;;20658481;28;20354;-41
2024/02/10 20:37:12;;;;;;;15.25;10.93;;;10.90;99.90;;;;;;20661899;28;20049;-41
2024/02/10 20:47:14;;;;;;;17.25;12.02;;;10.90;99.90;;;;;;20651760;28;20037;-41
2024/02/10 20:57:16;;;;;;;16.92;10.93;;;10.90;99.90;;;;;;20654951;28;20080;-41
2024/02/10 21:07:19;;;;;;;17.17;12.93;;;10.90;99.90;;;;;;20661439;28;20034;-41
2024/02/10 21:17:20;;;;;;;16.02;11.35;;;11.00;99.90;;;;;;20684243;28;20038;-41
2024/02/10 21:27:20;;;;;;;15.95;10.57;;;10.90;99.90;;;;;;20680120;28;20088;-41
2024/02/10 21:37:21;;;;;;;15.55;10.85;;;10.90;99.90;;;;;;20685980;28;20104;-41
2024/02/10 21:47:21;;;;;;;13.75;10.52;;;10.90;99.90;;;;;;20690241;28;20033;-41
2024/02/10 21:57:25;;;;;;;17.00;10.30;;;10.80;99.90;;;;;;20690666;28;20042;-41
2024/02/10 22:07:25;;;;;;;13.75;10.02;;;10.80;99.90;;;;;;20687337;28;20057;-41
2024/02/10 22:17:28;;;;;;;13.82;10.48;;;10.80;99.90;;;;;;20677031;28;20048;-41
2024/02/10 22:27:31;;;;;;;14.93;11.32;;;10.70;99.90;;;;;;20677091;28;20471;-41
2024/02/10 22:37:32;;;;;;;16.35;11.50;;;10.70;99.90;;;;;;20685939;28;20042;-41
2024/02/10 22:47:33;;;;;;;17.70;11.68;;;10.70;99.90;;;;;;20693860;28;20056;-41
2024/02/10 22:57:33;;;;;;;18.67;13.45;;;10.70;99.90;;;;;;20697314;28;20132;-41
2024/02/10 23:07:34;;;;;;;18.60;13.02;;;10.70;99.90;;;;;;20699856;28;20034;-41
2024/02/10 23:17:37;;;;;;;19.20;13.98;;;10.70;99.90;;;;;;20696992;28;20065;-41
2024/02/10 23:27:39;;;;;;;19.45;13.38;;;10.70;99.90;;;;;;20690663;28;20053;-41
2024/02/10 23:37:41;;;;;;;19.45;13.30;;;10.70;99.90;;;;;;20686906;28;20050;-41
2024/02/10 23:47:44;;;;;;;20.45;14.05;;;10.70;99.90;;;;;;20688093;28;20156;-41
2024/02/10 23:57:44;;;;;;;19.02;14.10;;;10.80;99.90;;;;;;20687205;28;20037;-41
